Aviation Digital Data Service (ADDS)

Output produced by METARs form (0849 UTC 27 July 2017)
found at http://www.aviationweather.gov/adds/metars/
 
METAR text: RJNK 270800Z 03007KT 9999 FEW015 BKN120 29/21 Q1007
Conditions at: RJNK (KOMATSU (CIV/JAS, JP) observed 0800 UTC 27 July 2017
Temperature: 29.0°C (84°F)
Dewpoint: 21.0°C (70°F) [RH = 62%]
Pressure (altimeter): 29.73 inches Hg (1007.0 mb)
Winds: from the NNE (30 degrees) at 8 MPH (7 knots; 3.6 m/s)
Visibility: 6 or more miles (10+ km)
Ceiling: 12000 feet AGL
Clouds: few clouds at 1500 feet AGL
broken clouds at 12000 feet AGL
Weather: no significant weather observed at this time